Time;durP1;ratioP1;P1;durP2;ratioP2;P2;SDS_P1;SDS_P2;PMS_P1;PMS_P2;Temp;Humidity;BMP_temperature;BMP_pressure;BME280_temperature;BME280_humidity;BME280_pressure;Samples;Min_cycle;Max_cycle;Signal;HPM_P1;HPM_P2
2021/03/27 00:01:10;;;;;;;27.33;13.20;;;;;;;-141.50;100.00;63355.56;5040445;28;20042;-78
2021/03/27 00:03:48;;;;;;;26.08;13.57;;;;;;;-141.50;100.00;63355.56;5036390;28;20049;-77
2021/03/27 00:06:38;;;;;;;28.77;13.85;;;;;;;-141.50;100.00;63355.56;5020040;28;20046;-78
2021/03/27 00:09:46;;;;;;;22.73;12.50;;;;;;;-141.50;100.00;63355.56;5010413;28;20064;-78
2021/03/27 00:12:40;;;;;;;25.85;12.93;;;;;;;-141.50;100.00;63355.56;5018130;28;20049;-78
2021/03/27 00:15:24;;;;;;;27.20;12.93;;;;;;;-141.50;100.00;63355.56;5018531;28;20042;-78
2021/03/27 00:18:10;;;;;;;26.77;12.25;;;;;;;-141.50;100.00;63355.56;5018673;28;20057;-78
2021/03/27 00:20:48;;;;;;;27.38;11.90;;;;;;;-141.50;100.00;63355.56;5034836;28;20525;-78
2021/03/27 00:23:20;;;;;;;24.65;10.88;;;;;;;-141.50;100.00;63355.56;5034485;28;20050;-78
2021/03/27 00:25:57;;;;;;;24.25;10.93;;;;;;;-141.50;100.00;63355.56;5019949;28;20289;-78
2021/03/27 00:28:34;;;;;;;26.55;10.85;;;;;;;-141.50;100.00;63355.56;5022420;28;20072;-78
2021/03/27 00:31:14;;;;;;;25.48;10.50;;;;;;;-141.50;100.00;63355.56;5046770;28;20097;-79
2021/03/27 00:33:53;;;;;;;20.77;9.55;;;;;;;-141.50;100.00;63355.56;5035232;28;20052;-79
2021/03/27 00:36:24;;;;;;;24.13;10.13;;;;;;;-141.50;100.00;63355.56;5008650;28;20141;-79
2021/03/27 00:39:01;;;;;;;22.88;10.18;;;;;;;-141.50;100.00;63355.56;5035502;28;20280;-77
2021/03/27 00:41:49;;;;;;;21.67;9.65;;;;;;;-141.50;100.00;63355.56;5022827;28;20065;-77
2021/03/27 00:44:18;;;;;;;20.98;9.63;;;;;;;-141.50;100.00;63355.56;5022241;28;20046;-77
2021/03/27 00:46:46;;;;;;;19.35;9.43;;;;;;;-141.50;100.00;63355.56;5019881;28;20042;-78
2021/03/27 00:49:35;;;;;;;21.92;8.85;;;;;;;-141.50;100.00;63355.56;5038234;28;20058;-78
2021/03/27 00:52:06;;;;;;;21.83;9.30;;;;;;;-141.50;100.00;63355.56;5036311;28;20042;-78
2021/03/27 00:54:42;;;;;;;19.08;8.40;;;;;;;-141.50;100.00;63355.56;5021051;28;20050;-79
2021/03/27 00:57:15;;;;;;;;;;;;;;;-141.50;100.00;63355.56;5020477;28;20116;-79
2021/03/27 00:59:55;;;;;;;20.13;9.25;;;;;;;-141.50;100.00;63355.56;5019109;28;19921;-78
2021/03/27 01:02:22;;;;;;;24.05;8.82;;;;;;;-141.50;100.00;63355.56;5034021;28;20048;-79
2021/03/27 01:04:48;;;;;;;17.02;8.25;;;;;;;-141.50;100.00;63355.56;5021100;28;20081;-78
2021/03/27 01:07:17;;;;;;;18.58;8.52;;;;;;;-141.50;100.00;63355.56;5013540;28;20049;-79
2021/03/27 01:09:43;;;;;;;18.75;7.78;;;;;;;-141.50;100.00;63355.56;5032083;28;20065;-77
2021/03/27 01:12:26;;;;;;;19.33;8.00;;;;;;;-141.50;100.00;63355.56;5018338;28;20049;-77
2021/03/27 01:14:57;;;;;;;20.30;8.10;;;;;;;-141.50;100.00;63355.56;5031986;28;20042;-77
2021/03/27 01:17:35;;;;;;;15.57;8.10;;;;;;;-141.50;100.00;63355.56;5000226;28;20128;-78
2021/03/27 01:20:14;;;;;;;18.08;7.95;;;;;;;-141.50;100.00;63355.56;5017796;28;20513;-78
2021/03/27 01:22:41;;;;;;;14.68;7.45;;;;;;;-141.50;100.00;63355.56;5020125;28;20041;-76
2021/03/27 01:25:08;;;;;;;16.95;7.80;;;;;;;-141.50;100.00;63355.56;5017303;28;20211;-78
2021/03/27 01:27:45;;;;;;;17.30;8.00;;;;;;;-141.50;100.00;63355.56;5023328;28;20049;-78
2021/03/27 01:30:16;;;;;;;18.35;8.07;;;;;;;-141.50;100.00;63355.56;5018070;28;20053;-78
2021/03/27 01:32:51;;;;;;;14.32;7.22;;;;;;;-141.50;100.00;63355.56;5017782;28;20445;-78
2021/03/27 01:35:41;;;;;;;17.40;7.57;;;;;;;-141.50;100.00;63355.56;5017830;28;20481;-77
2021/03/27 01:38:13;;;;;;;16.20;7.22;;;;;;;-141.50;100.00;63355.56;5017548;28;20116;-77
2021/03/27 01:40:55;;;;;;;15.93;6.68;;;;;;;-141.50;100.00;63355.56;5030457;28;20042;-78
2021/03/27 01:43:38;;;;;;;17.48;7.70;;;;;;;-141.50;100.00;63355.56;5033703;28;20045;-78
2021/03/27 01:46:21;;;;;;;14.82;6.80;;;;;;;-141.50;100.00;63355.56;5031554;28;20076;-77
2021/03/27 01:49:02;;;;;;;14.52;6.78;;;;;;;-141.50;100.00;63355.56;5016591;28;20049;-78
2021/03/27 01:51:58;;;;;;;14.52;7.05;;;;;;;-141.50;100.00;63355.56;5014614;28;20069;-77
2021/03/27 01:54:31;;;;;;;17.02;7.22;;;;;;;-141.50;100.00;63355.56;5031667;28;20046;-77
2021/03/27 01:57:22;;;;;;;12.98;6.63;;;;;;;-141.50;100.00;63355.56;5016666;28;20464;-78
2021/03/27 01:59:59;;;;;;;16.95;7.10;;;;;;;-141.50;100.00;63355.56;5014547;28;20049;-78
2021/03/27 02:02:33;;;;;;;14.48;6.45;;;;;;;-141.50;100.00;63355.56;5014144;28;20046;-77
2021/03/27 02:05:07;;;;;;;16.90;7.45;;;;;;;-141.50;100.00;63355.56;5033423;28;20077;-78
2021/03/27 02:07:58;;;;;;;11.93;6.38;;;;;;;-141.50;100.00;63355.56;5030800;28;20053;-78
2021/03/27 02:10:49;;;;;;;15.57;7.35;;;;;;;-141.50;100.00;63355.56;5016676;28;20580;-78
2021/03/27 02:13:40;;;;;;;15.48;7.00;;;;;;;-141.50;100.00;63355.56;5016463;28;20052;-77
2021/03/27 02:16:21;;;;;;;13.63;6.28;;;;;;;-141.50;100.00;63355.56;5031716;28;20042;-77
2021/03/27 02:19:22;;;;;;;14.35;6.38;;;;;;;-141.50;100.00;63355.56;5013378;28;20049;-77
2021/03/27 02:22:06;;;;;;;14.60;6.35;;;;;;;-141.50;100.00;63355.56;5027796;28;20042;-79
2021/03/27 02:24:51;;;;;;;13.88;6.20;;;;;;;-141.50;100.00;63355.56;5016532;28;20060;-77
2021/03/27 02:27:39;;;;;;;14.02;6.82;;;;;;;-141.50;100.00;63355.56;5034162;28;20486;-77
2021/03/27 02:30:29;;;;;;;14.80;6.05;;;;;;;-141.50;100.00;63355.56;5015513;28;20054;-77
2021/03/27 02:33:18;;;;;;;13.20;6.70;;;;;;;-141.50;100.00;63355.56;5016316;28;20065;-78
2021/03/27 02:36:03;;;;;;;13.35;6.05;;;;;;;-141.50;100.00;63355.56;5030958;28;20053;-79
2021/03/27 02:38:34;;;;;;;15.32;6.60;;;;;;;-141.50;100.00;63355.56;5016709;28;20042;-78
2021/03/27 02:41:04;;;;;;;16.17;6.32;;;;;;;-141.50;100.00;63355.56;5017101;28;20133;-77
2021/03/27 02:43:45;;;;;;;15.98;6.75;;;;;;;-141.50;100.00;63355.56;5017886;28;20072;-77
2021/03/27 02:46:44;;;;;;;15.13;6.72;;;;;;;-141.50;100.00;63355.56;5034158;28;20049;-78
2021/03/27 02:49:48;;;;;;;14.35;6.43;;;;;;;-141.50;100.00;63355.56;5012381;28;20096;-78
2021/03/27 02:52:15;;;;;;;14.83;6.63;;;;;;;-141.50;100.00;63355.56;5017009;28;20128;-77
2021/03/27 02:54:55;;;;;;;14.23;6.43;;;;;;;-141.50;100.00;63355.56;5016945;28;20065;-78
2021/03/27 02:57:30;;;;;;;15.57;6.40;;;;;;;-141.50;100.00;63355.56;5030767;28;20300;-77
2021/03/27 03:00:12;;;;;;;17.38;6.85;;;;;;;-141.50;100.00;63355.56;5013929;28;20474;-78
2021/03/27 03:03:00;;;;;;;14.82;6.53;;;;;;;-141.50;100.00;63355.56;5014795;28;20047;-78
2021/03/27 03:05:48;;;;;;;17.35;7.18;;;;;;;-141.50;100.00;63355.56;5017245;28;20065;-78
2021/03/27 03:08:23;;;;;;;16.10;6.35;;;;;;;-141.50;100.00;63355.56;5015388;28;20034;-78
2021/03/27 03:10:57;;;;;;;13.60;6.13;;;;;;;-141.50;100.00;63355.56;5015138;28;20046;-77
2021/03/27 03:13:43;;;;;;;15.40;6.70;;;;;;;-141.50;100.00;63355.56;5014202;28;20056;-77
2021/03/27 03:16:30;;;;;;;15.80;6.90;;;;;;;-141.50;100.00;63355.56;5040203;28;20053;-78
2021/03/27 03:19:15;;;;;;;14.75;7.03;;;;;;;-141.50;100.00;63355.56;5017104;28;20049;-78
2021/03/27 03:21:55;;;;;;;14.68;6.80;;;;;;;-141.50;100.00;63355.56;5013940;28;20149;-78
2021/03/27 03:24:35;;;;;;;13.60;6.05;;;;;;;-141.50;100.00;63355.56;5014776;28;20041;-78
2021/03/27 03:27:10;;;;;;;14.13;6.82;;;;;;;-141.50;100.00;63355.56;5013541;28;20429;-78
2021/03/27 03:29:39;;;;;;;13.00;6.75;;;;;;;-141.50;100.00;63355.56;5014754;28;20045;-79
2021/03/27 03:32:39;;;;;;;14.52;6.18;;;;;;;-141.50;100.00;63355.56;5015116;28;20050;-79
2021/03/27 03:35:20;;;;;;;14.13;6.60;;;;;;;-141.50;100.00;63355.56;5031068;28;20434;-78
2021/03/27 03:38:01;;;;;;;12.75;6.07;;;;;;;-141.50;100.00;63355.56;5030307;28;20042;-78
2021/03/27 03:41:05;;;;;;;14.63;6.28;;;;;;;-141.50;100.00;63355.56;5013673;28;20050;-78
2021/03/27 03:43:55;;;;;;;14.43;6.00;;;;;;;-141.50;100.00;63355.56;5014977;28;20092;-78
2021/03/27 03:46:47;;;;;;;13.57;6.65;;;;;;;-141.50;100.00;63355.56;5029155;28;20054;-78
2021/03/27 03:49:30;;;;;;;16.55;6.43;;;;;;;-141.50;100.00;63355.56;5014984;28;20049;-79
2021/03/27 03:52:15;;;;;;;12.30;6.15;;;;;;;-141.50;100.00;63355.56;5029335;28;20452;-78
2021/03/27 03:55:07;;;;;;;12.45;6.05;;;;;;;-141.50;100.00;63355.56;5013804;28;20137;-77
2021/03/27 03:57:44;;;;;;;19.35;6.05;;;;;;;-141.50;100.00;63355.56;5016401;28;20037;-77
2021/03/27 04:00:21;;;;;;;14.13;6.53;;;;;;;-141.50;100.00;63355.56;5015426;28;20125;-78
2021/03/27 04:03:00;;;;;;;14.13;6.22;;;;;;;-141.50;100.00;63355.56;5031805;28;20046;-78
2021/03/27 04:05:51;;;;;;;14.88;6.60;;;;;;;-141.50;100.00;63355.56;5015371;28;20482;-78
2021/03/27 04:08:26;;;;;;;16.30;6.65;;;;;;;-141.50;100.00;63355.56;5038370;28;20034;-79
2021/03/27 04:11:02;;;;;;;14.27;6.60;;;;;;;-141.50;100.00;63355.56;5031850;28;20057;-77
2021/03/27 04:13:39;;;;;;;16.20;6.57;;;;;;;-141.50;100.00;63355.56;5015426;28;20514;-76
2021/03/27 04:16:18;;;;;;;13.27;6.68;;;;;;;-141.50;100.00;63355.56;5012848;28;20104;-78
2021/03/27 04:19:00;;;;;;;12.98;6.35;;;;;;;-141.50;100.00;63355.56;5029652;28;20125;-78
2021/03/27 04:21:35;;;;;;;20.10;6.75;;;;;;;-141.50;100.00;63355.56;5028913;28;20042;-77
2021/03/27 04:24:08;;;;;;;15.50;6.65;;;;;;;-141.50;100.00;63355.56;5014100;28;20058;-79
2021/03/27 04:26:47;;;;;;;16.48;6.97;;;;;;;-141.50;100.00;63355.56;5013857;28;20065;-79
2021/03/27 04:29:16;;;;;;;15.07;6.97;;;;;;;-141.50;100.00;63355.56;5031848;28;20068;-78
2021/03/27 04:32:10;;;;;;;13.70;7.20;;;;;;;-141.50;100.00;63355.56;5015024;28;20048;-78
2021/03/27 04:34:43;;;;;;;13.98;6.65;;;;;;;-141.50;100.00;63355.56;5015092;28;20038;-77
2021/03/27 04:37:20;;;;;;;14.48;7.22;;;;;;;-141.50;100.00;63355.56;5015069;28;20052;-77
2021/03/27 04:39:56;;;;;;;14.30;6.75;;;;;;;-141.50;100.00;63355.56;5028375;28;20352;-77
2021/03/27 04:42:38;;;;;;;14.55;6.82;;;;;;;-141.50;100.00;63355.56;5013857;28;20042;-77
2021/03/27 04:45:35;;;;;;;16.63;6.95;;;;;;;-141.50;100.00;63355.56;5018071;28;20097;-78
2021/03/27 04:48:16;;;;;;;18.70;7.07;;;;;;;-141.50;100.00;63355.56;5017337;28;20041;-78
2021/03/27 04:51:20;;;;;;;17.23;7.53;;;;;;;-141.50;100.00;63355.56;5016083;28;20109;-78
2021/03/27 04:54:03;;;;;;;19.08;7.53;;;;;;;-141.50;100.00;63355.56;5013543;28;20462;-78
2021/03/27 04:56:35;;;;;;;16.65;7.82;;;;;;;-141.50;100.00;63355.56;5013733;28;20053;-77
2021/03/27 04:59:17;;;;;;;18.35;6.80;;;;;;;-141.50;100.00;63355.56;5011366;28;20042;-80
2021/03/27 05:01:54;;;;;;;16.65;7.60;;;;;;;-141.50;100.00;63355.56;5028375;28;20038;-77
2021/03/27 05:04:51;;;;;;;15.77;7.57;;;;;;;-141.50;100.00;63355.56;5011757;28;20409;-80
2021/03/27 05:07:23;;;;;;;;;;;;;;;-141.50;100.00;63355.56;5012544;28;20615;-77
2021/03/27 05:09:57;;;;;;;16.33;7.40;;;;;;;-141.50;100.00;63355.56;5011851;28;19921;-77
2021/03/27 05:12:52;;;;;;;16.92;7.25;;;;;;;-141.50;100.00;63355.56;5013195;28;20135;-78
2021/03/27 05:16:10;;;;;;;15.98;7.97;;;;;;;-141.50;100.00;63355.56;5028728;28;20128;-78
2021/03/27 05:18:54;;;;;;;14.02;7.03;;;;;;;-141.50;100.00;63355.56;5024152;28;20046;-76
2021/03/27 05:21:36;;;;;;;17.00;6.63;;;;;;;-141.50;100.00;63355.56;5011373;28;20046;-79
2021/03/27 05:24:14;;;;;;;14.65;6.90;;;;;;;-141.50;100.00;63355.56;5013750;28;20050;-79
2021/03/27 05:26:52;;;;;;;16.42;7.28;;;;;;;-141.50;100.00;63355.56;5014737;28;20041;-78
2021/03/27 05:29:43;;;;;;;16.65;7.55;;;;;;;-141.50;100.00;63355.56;5013694;28;20068;-78
2021/03/27 05:32:19;;;;;;;14.23;7.53;;;;;;;-141.50;100.00;63355.56;5017019;28;20050;-79
2021/03/27 05:34:52;;;;;;;12.45;6.85;;;;;;;-141.50;100.00;63355.56;5009071;28;20049;-77
2021/03/27 05:37:37;;;;;;;14.20;6.82;;;;;;;-141.50;100.00;63355.56;5027199;28;20110;-78
2021/03/27 05:40:24;;;;;;;14.57;7.20;;;;;;;-141.50;100.00;63355.56;5055951;22;20436;-76
2021/03/27 05:43:12;;;;;;;15.48;7.25;;;;;;;-141.50;100.00;63355.56;5049450;28;20493;-76
2021/03/27 05:45:57;;;;;;;16.58;7.63;;;;;;;-141.50;100.00;63355.56;5045061;28;20049;-75
2021/03/27 05:49:17;;;;;;;17.40;7.22;;;;;;;-141.50;100.00;63355.56;5051881;28;20040;-75
2021/03/27 05:52:01;;;;;;;14.63;7.20;;;;;;;-141.50;100.00;63355.56;5056694;28;20039;-77
2021/03/27 05:54:45;;;;;;;18.40;7.95;;;;;;;-141.50;100.00;63355.56;5050320;28;20389;-75
2021/03/27 05:57:41;;;;;;;14.35;7.15;;;;;;;-141.50;100.00;63355.56;5049728;28;20116;-76
2021/03/27 06:00:43;;;;;;;16.30;7.20;;;;;;;-141.50;100.00;63355.56;5051928;28;20055;-78
2021/03/27 06:03:28;;;;;;;14.55;7.30;;;;;;;-141.50;100.00;63355.56;5070716;28;20132;-75
2021/03/27 06:06:13;;;;;;;13.70;7.00;;;;;;;-141.50;100.00;63355.56;5064069;28;20045;-77
2021/03/27 06:09:17;;;;;;;14.35;7.30;;;;;;;-141.50;100.00;63355.56;5057111;28;20056;-75
2021/03/27 06:12:15;;;;;;;19.63;7.15;;;;;;;-141.50;100.00;63355.56;5069744;28;20503;-79
2021/03/27 06:15:06;;;;;;;18.35;7.10;;;;;;;-141.50;100.00;63355.56;5071022;28;20040;-77
2021/03/27 06:18:00;;;;;;;15.80;6.95;;;;;;;-141.50;100.00;63355.56;5070660;28;20032;-76
2021/03/27 06:20:47;;;;;;;16.17;7.32;;;;;;;-141.50;100.00;63355.56;5071343;28;20044;-77
2021/03/27 06:23:47;;;;;;;13.43;7.07;;;;;;;-141.50;100.00;63355.56;5059746;28;20048;-77
2021/03/27 06:26:26;;;;;;;14.45;7.20;;;;;;;-141.50;100.00;63355.56;5068698;28;20056;-76
2021/03/27 06:29:12;;;;;;;15.18;6.65;;;;;;;-141.50;100.00;63355.56;5070099;28;20051;-75
2021/03/27 06:31:50;;;;;;;17.48;7.80;;;;;;;-141.50;100.00;63355.56;5070475;28;20094;-75
2021/03/27 06:34:40;;;;;;;20.75;7.65;;;;;;;-141.50;100.00;63355.56;5049235;28;20049;-76
2021/03/27 06:37:45;;;;;;;18.90;7.30;;;;;;;-141.50;100.00;63355.56;5047294;28;20065;-75
2021/03/27 06:40:49;;;;;;;13.40;6.82;;;;;;;-141.50;100.00;63355.56;5057959;28;20052;-74
2021/03/27 06:43:27;;;;;;;13.80;7.07;;;;;;;-141.50;100.00;63355.56;5071093;28;20098;-75
2021/03/27 06:46:13;;;;;;;15.07;7.20;;;;;;;-141.50;100.00;63355.56;5064104;28;20047;-76
2021/03/27 06:49:33;;;;;;;13.25;7.00;;;;;;;-141.50;100.00;63355.56;5028324;28;20431;-75
2021/03/27 06:52:29;;;;;;;17.42;7.50;;;;;;;-141.50;100.00;63355.56;4996824;28;20205;-75
2021/03/27 06:55:14;;;;;;;17.38;8.50;;;;;;;-141.50;100.00;63355.56;5047070;28;20053;-74
2021/03/27 06:57:54;;;;;;;20.92;8.57;;;;;;;-141.50;100.00;63355.56;5047774;28;20583;-74
2021/03/27 07:00:35;;;;;;;16.42;9.15;;;;;;;-141.50;100.00;63355.56;5052526;28;20048;-73
2021/03/27 07:03:39;;;;;;;22.35;10.05;;;;;;;-141.50;100.00;63355.56;5066009;28;20032;-75
2021/03/27 07:06:37;;;;;;;18.50;9.75;;;;;;;-141.50;100.00;63355.56;5064205;28;20059;-75
2021/03/27 07:09:12;;;;;;;19.85;9.73;;;;;;;-141.50;100.00;63355.56;5049592;28;20051;-74
2021/03/27 07:12:07;;;;;;;22.60;10.25;;;;;;;-141.50;100.00;63355.56;5049229;28;20044;-73
2021/03/27 07:15:04;;;;;;;20.65;10.00;;;;;;;-141.50;100.00;63355.56;5047399;28;20061;-73
2021/03/27 07:17:37;;;;;;;15.10;8.88;;;;;;;-141.50;100.00;63355.56;5047902;28;20130;-74
2021/03/27 07:20:06;;;;;;;14.75;8.63;;;;;;;-141.50;100.00;63355.56;5046429;28;20079;-74
2021/03/27 07:23:00;;;;;;;17.50;8.18;;;;;;;-141.50;100.00;63355.56;5045466;28;20047;-73
2021/03/27 07:25:40;;;;;;;15.25;7.53;;;;;;;-141.50;100.00;63355.56;5045429;28;20333;-76
2021/03/27 07:28:35;;;;;;;14.07;7.20;;;;;;;-141.50;100.00;63355.56;5048653;28;20064;-75
2021/03/27 07:31:07;;;;;;;12.48;5.60;;;;;;;-141.50;100.00;63355.56;5046333;28;20036;-75
2021/03/27 07:33:58;;;;;;;12.70;6.50;;;;;;;-141.50;100.00;63355.56;5046242;28;20036;-76
2021/03/27 07:36:40;;;;;;;14.05;5.97;;;;;;;-141.50;100.00;63355.56;5026303;28;20045;-75
2021/03/27 07:39:12;;;;;;;10.55;5.28;;;;;;;-141.50;100.00;63355.56;5024804;28;20045;-75
2021/03/27 07:42:04;;;;;;;8.30;4.57;;;;;;;-141.50;100.00;63355.56;5061031;28;20041;-73
2021/03/27 07:44:40;;;;;;;10.32;4.43;;;;;;;-141.50;100.00;63355.56;5047635;28;20072;-76
2021/03/27 07:47:35;;;;;;;12.23;5.05;;;;;;;-141.50;100.00;63355.56;5045210;28;20045;-75
2021/03/27 07:50:21;;;;;;;10.65;4.20;;;;;;;-141.50;100.00;63355.56;5044862;28;20049;-74
2021/03/27 07:53:30;;;;;;;15.90;5.22;;;;;;;-141.50;100.00;63355.56;5045501;28;20566;-75
2021/03/27 07:56:38;;;;;;;10.27;4.72;;;;;;;-141.50;100.00;63355.56;5046141;28;20475;-75
2021/03/27 07:59:25;;;;;;;11.20;4.45;;;;;;;-141.50;100.00;63355.56;5045964;28;20048;-75
2021/03/27 08:02:42;;;;;;;10.77;4.07;;;;;;;-141.50;100.00;63355.56;5045147;28;20052;-74
2021/03/27 08:05:27;;;;;;;9.40;4.57;;;;;;;-141.50;100.00;63355.56;5021973;28;20064;-76
2021/03/27 08:08:30;;;;;;;10.00;4.68;;;;;;;-141.50;100.00;63355.56;5044696;28;20057;-75
2021/03/27 08:11:19;;;;;;;9.13;4.75;;;;;;;-141.50;100.00;63355.56;5022053;28;20516;-75
2021/03/27 08:14:06;;;;;;;7.88;4.47;;;;;;;-141.50;100.00;63355.56;5045834;28;20053;-75
2021/03/27 08:17:11;;;;;;;6.32;2.13;;;;;;;-141.50;100.00;63355.56;5042443;28;20037;-73
2021/03/27 08:19:46;;;;;;;4.25;1.90;;;;;;;-141.50;100.00;63355.56;5050928;28;20246;-77
2021/03/27 08:22:33;;;;;;;6.60;2.00;;;;;;;-141.50;100.00;63355.56;5048141;28;20068;-75
2021/03/27 08:25:30;;;;;;;7.07;2.90;;;;;;;-141.50;100.00;63355.56;5049554;28;20298;-75
2021/03/27 08:28:07;;;;;;;7.43;2.75;;;;;;;-141.50;100.00;63355.56;5047898;28;20045;-76
2021/03/27 08:31:09;;;;;;;5.63;2.90;;;;;;;-141.50;100.00;63355.56;5049752;28;20056;-77
2021/03/27 08:33:53;;;;;;;12.95;2.90;;;;;;;-141.50;100.00;63355.56;5048383;28;20041;-76
2021/03/27 08:36:28;;;;;;;4.88;2.25;;;;;;;-141.50;100.00;63355.56;5045516;28;20036;-75
2021/03/27 08:39:16;;;;;;;5.35;2.97;;;;;;;-141.50;100.00;63355.56;5058624;28;20452;-73
2021/03/27 08:42:08;;;;;;;6.10;2.17;;;;;;;-141.50;100.00;63355.56;5046596;28;20511;-76
2021/03/27 08:44:43;;;;;;;3.83;2.10;;;;;;;-141.50;100.00;63355.56;5047636;28;20044;-76
2021/03/27 08:47:12;;;;;;;3.63;1.80;;;;;;;-141.50;100.00;63355.56;5046274;28;20057;-76
2021/03/27 08:49:57;;;;;;;5.22;2.20;;;;;;;-141.50;100.00;63355.56;5042888;28;20329;-76
2021/03/27 08:53:01;;;;;;;5.18;1.90;;;;;;;-141.50;100.00;63355.56;5043988;28;20186;-76
2021/03/27 08:55:35;;;;;;;2.97;1.75;;;;;;;-141.50;100.00;63355.56;5040636;28;20059;-77
2021/03/27 08:58:28;;;;;;;4.13;2.10;;;;;;;-141.50;100.00;63355.56;5047476;28;20175;-74
2021/03/27 09:01:08;;;;;;;5.63;2.15;;;;;;;-141.50;100.00;63355.56;5031703;28;20420;-74
2021/03/27 09:04:01;;;;;;;3.30;2.00;;;;;;;-141.50;100.00;63355.56;5054078;28;20060;-77
2021/03/27 09:06:34;;;;;;;5.40;2.30;;;;;;;-141.50;100.00;63355.56;5050953;28;20091;-75
2021/03/27 09:09:25;;;;;;;3.83;2.00;;;;;;;-141.50;100.00;63355.56;5051130;28;20106;-76
2021/03/27 09:12:13;;;;;;;3.90;2.30;;;;;;;-141.50;100.00;63355.56;5045910;28;20033;-76
2021/03/27 09:14:51;;;;;;;3.83;2.15;;;;;;;-141.50;100.00;63355.56;5057697;28;20053;-74
2021/03/27 09:17:45;;;;;;;3.50;1.83;;;;;;;-141.50;100.00;63355.56;5028450;28;20056;-73
2021/03/27 09:20:21;;;;;;;2.60;1.50;;;;;;;-141.50;100.00;63355.56;5029003;28;20061;-73
2021/03/27 09:23:09;;;;;;;3.13;1.80;;;;;;;-141.50;100.00;63355.56;5028683;28;20592;-75
2021/03/27 09:26:13;;;;;;;3.75;2.15;;;;;;;-141.50;100.00;63355.56;5048132;28;20052;-75
2021/03/27 09:28:58;;;;;;;4.47;2.38;;;;;;;-141.50;100.00;63355.56;5046412;28;20114;-74
2021/03/27 09:31:36;;;;;;;4.65;2.40;;;;;;;-141.50;100.00;63355.56;5047624;28;20056;-76
2021/03/27 09:34:40;;;;;;;4.72;2.60;;;;;;;-141.50;100.00;63355.56;5048541;28;20048;-77
2021/03/27 09:37:30;;;;;;;2.40;1.98;;;;;;;-141.50;100.00;63355.56;5065747;28;20102;-75
2021/03/27 09:40:09;;;;;;;3.55;2.10;;;;;;;-141.50;100.00;63355.56;5047550;28;20053;-74
2021/03/27 09:42:51;;;;;;;3.50;1.90;;;;;;;-141.50;100.00;63355.56;5046726;28;20049;-75
2021/03/27 09:45:41;;;;;;;3.72;2.20;;;;;;;-141.50;100.00;63355.56;5049183;28;20057;-75
2021/03/27 09:48:26;;;;;;;3.25;1.90;;;;;;;-141.50;100.00;63355.56;5046530;28;20067;-75
2021/03/27 09:51:10;;;;;;;3.97;2.45;;;;;;;-141.50;100.00;63355.56;5048014;28;20053;-74
2021/03/27 09:54:00;;;;;;;3.78;2.20;;;;;;;-141.50;100.00;63355.56;5046790;28;20326;-74
2021/03/27 09:56:52;;;;;;;4.20;2.10;;;;;;;-141.50;100.00;63355.56;5048389;28;20048;-75
2021/03/27 09:59:36;;;;;;;3.35;2.10;;;;;;;-141.50;100.00;63355.56;5030477;28;20049;-74
2021/03/27 10:02:11;;;;;;;3.10;1.50;;;;;;;-141.50;100.00;63355.56;5047877;28;20045;-75
2021/03/27 10:04:53;;;;;;;4.18;1.75;;;;;;;-141.50;100.00;63355.56;5046055;28;20049;-75
2021/03/27 10:07:56;;;;;;;1.77;1.33;;;;;;;-141.50;100.00;63355.56;5048226;28;20609;-76
2021/03/27 10:10:37;;;;;;;3.20;1.13;;;;;;;-141.50;100.00;63355.56;5046503;28;20041;-76
2021/03/27 10:13:15;;;;;;;1.83;0.75;;;;;;;-141.50;100.00;63355.56;5047935;28;20479;-75
2021/03/27 10:15:52;;;;;;;1.60;0.75;;;;;;;-141.50;100.00;63355.56;5056255;28;20048;-76
2021/03/27 10:18:59;;;;;;;3.13;0.73;;;;;;;-141.50;100.00;63355.56;5065159;28;20226;-75
2021/03/27 10:21:46;;;;;;;2.90;0.80;;;;;;;-141.50;100.00;63355.56;5065788;28;20048;-75
2021/03/27 10:24:34;;;;;;;2.30;0.63;;;;;;;-141.50;100.00;63355.56;5066085;28;20395;-77
2021/03/27 10:27:37;;;;;;;4.20;0.88;;;;;;;-141.50;100.00;63355.56;5045086;28;20128;-75
2021/03/27 10:30:32;;;;;;;2.45;0.77;;;;;;;-141.50;100.00;63355.56;5047291;28;20051;-73
2021/03/27 10:33:13;;;;;;;2.45;0.60;;;;;;;-141.50;100.00;63355.56;5052616;28;20060;-73
2021/03/27 10:35:52;;;;;;;2.00;0.50;;;;;;;-141.50;100.00;63355.56;5048231;28;20045;-74
2021/03/27 10:38:56;;;;;;;2.75;0.50;;;;;;;-141.50;100.00;63355.56;5048659;28;20048;-73
2021/03/27 10:41:39;;;;;;;1.40;0.60;;;;;;;-141.50;100.00;63355.56;5045755;28;20045;-75
2021/03/27 10:44:18;;;;;;;2.38;0.60;;;;;;;-141.50;100.00;63355.56;5047430;28;20206;-75
2021/03/27 10:46:49;;;;;;;2.05;0.60;;;;;;;-141.50;100.00;63355.56;5046184;28;20049;-74
2021/03/27 10:49:23;;;;;;;4.28;0.80;;;;;;;-141.50;100.00;63355.56;5045655;28;20048;-74
2021/03/27 10:52:20;;;;;;;2.65;0.60;;;;;;;-141.50;100.00;63355.56;5047645;28;20401;-75
2021/03/27 10:55:02;;;;;;;2.03;0.75;;;;;;;-141.50;100.00;63355.56;5046861;28;20079;-76
2021/03/27 10:57:38;;;;;;;2.25;0.82;;;;;;;-141.50;100.00;63355.56;5045162;28;20460;-77
2021/03/27 11:00:40;;;;;;;1.67;0.60;;;;;;;-141.50;100.00;63355.56;5045565;28;20045;-75
2021/03/27 11:03:50;;;;;;;3.00;1.00;;;;;;;-141.50;100.00;63355.56;5046082;28;20492;-75
2021/03/27 11:06:28;;;;;;;2.35;0.77;;;;;;;-141.50;100.00;63355.56;5045348;28;20052;-76
2021/03/27 11:09:26;;;;;;;1.83;0.55;;;;;;;-141.50;100.00;63355.56;5045356;28;20049;-76
2021/03/27 11:12:17;;;;;;;2.78;0.70;;;;;;;-141.50;100.00;63355.56;5044057;28;20049;-77
2021/03/27 11:14:48;;;;;;;1.58;0.70;;;;;;;-141.50;100.00;63355.56;5043614;28;20075;-74
2021/03/27 11:17:42;;;;;;;2.75;0.68;;;;;;;-141.50;100.00;63355.56;5043646;28;20056;-77
2021/03/27 11:20:17;;;;;;;3.85;0.80;;;;;;;-141.50;100.00;63355.56;5044339;28;20099;-75
2021/03/27 11:23:26;;;;;;;1.60;0.57;;;;;;;-141.50;100.00;63355.56;5047951;28;20048;-74
2021/03/27 11:26:10;;;;;;;3.15;0.43;;;;;;;-141.50;100.00;63355.56;5049357;28;20071;-75
2021/03/27 11:28:38;;;;;;;0.82;0.47;;;;;;;-141.50;100.00;63355.56;5051448;28;20123;-77
2021/03/27 11:31:28;;;;;;;1.13;0.50;;;;;;;-141.50;100.00;63355.56;5054540;28;20040;-75
2021/03/27 11:34:06;;;;;;;0.30;0.28;;;;;;;-141.50;100.00;63355.56;5065562;28;20036;-74
2021/03/27 11:36:54;;;;;;;1.80;0.70;;;;;;;-141.50;100.00;63355.56;5064138;28;20040;-75
2021/03/27 11:39:32;;;;;;;1.17;0.60;;;;;;;-141.50;100.00;63355.56;5075202;22;20056;-80
2021/03/27 11:42:17;;;;;;;2.45;0.70;;;;;;;-141.50;100.00;63355.56;5035410;28;20033;-79
2021/03/27 11:44:45;;;;;;;2.88;0.57;;;;;;;-141.50;100.00;63355.56;5064638;28;20066;-82
2021/03/27 11:47:43;;;;;;;2.22;0.30;;;;;;;-141.50;100.00;63355.56;5047993;28;20511;-81
2021/03/27 11:50:32;;;;;;;1.38;0.30;;;;;;;-141.50;100.00;63355.56;5010966;28;20761;-79
2021/03/27 11:53:18;;;;;;;6.97;0.75;;;;;;;-141.50;100.00;63355.56;5038228;28;20079;-82
2021/03/27 11:56:00;;;;;;;2.25;0.60;;;;;;;-141.50;100.00;63355.56;5066932;22;20046;-76
2021/03/27 12:01:40;;;;;;;3.35;0.77;;;;;;;-141.50;100.00;63355.56;5020913;28;20045;-77
2021/03/27 12:04:37;;;;;;;5.13;0.90;;;;;;;-141.50;100.00;63355.56;5019016;28;20408;-76
2021/03/27 12:07:37;;;;;;;2.70;0.70;;;;;;;-141.50;100.00;63355.56;5017700;28;20576;-76
2021/03/27 12:10:33;;;;;;;1.98;0.50;;;;;;;-141.50;100.00;63355.56;5030020;23;20110;-80
2021/03/27 12:13:23;;;;;;;1.13;0.50;;;;;;;-141.50;100.00;63355.56;5055467;28;20053;-80
2021/03/27 12:16:28;;;;;;;3.15;0.57;;;;;;;-141.50;100.00;63355.56;5051823;28;20049;-80
2021/03/27 12:19:26;;;;;;;1.17;0.63;;;;;;;-141.50;100.00;63355.56;5032495;28;20056;-80
2021/03/27 12:22:25;;;;;;;2.63;0.77;;;;;;;-141.50;100.00;63355.56;5055653;28;20053;-78
2021/03/27 12:24:51;;;;;;;3.72;0.82;;;;;;;-141.50;100.00;63355.56;5040199;28;20060;-80
2021/03/27 12:27:33;;;;;;;2.67;0.68;;;;;;;-141.50;100.00;63355.56;5040559;28;20049;-80